IN-0010 weather

Walong Advanced Landing Ground
Arunachal Pradesh, India

Public forecast

Using degrees Celsius for public forecast. Weather courtesy of forecast.io.

METAR (pilot weather report)

Closest report is Dibrugarh Airport, 113.2 nm (209.7 km) WSW. Retrieved 2018/10/23 05:00 UTC (6 minutes ago):

VEMN 230500Z 02005KT 4000 HZ FEW020 SCT100 31/20 Q1014 NOSIG

TAF (pilot weather forecast)

Forecast is more than 12 hours old.

Closest forecast is Jorhat Airport, 173.3 nm (320.9 km) WSW. Retrieved 2009/10/07 21:00 UTC (9 years ago):

TAF VEJT 072100Z 0800/0809 VRB02KT 2000 RA/HZ SCT015 SCT020 BKN100 BECMG 0804/0806 5000 HZ TEMPO 0800/0809 1500 TSRA SCT010 FEW025CB OVC090